sensor_id;sensor_type;location;lat;lon;timestamp;pressure;altitude;pressure_sealevel;temperature;humidity
14117;BME280;7137;51.436;6.544;2023-04-28T00:00:07;100924.63;;;11.42;69.36
14117;BME280;7137;51.436;6.544;2023-04-28T00:03:10;100931.63;;;11.42;69.17
14117;BME280;7137;51.436;6.544;2023-04-28T00:06:12;100922.44;;;11.56;67.21
14117;BME280;7137;51.436;6.544;2023-04-28T00:09:13;100921.59;;;11.28;69.59
14117;BME280;7137;51.436;6.544;2023-04-28T00:12:16;100916.09;;;11.36;70.35
14117;BME280;7137;51.436;6.544;2023-04-28T00:15:18;100918.22;;;11.51;71.53
14117;BME280;7137;51.436;6.544;2023-04-28T00:18:20;100915.56;;;11.52;69.93
14117;BME280;7137;51.436;6.544;2023-04-28T00:21:22;100907.81;;;11.49;71.08
14117;BME280;7137;51.436;6.544;2023-04-28T00:24:23;100890.38;;;11.50;68.98
14117;BME280;7137;51.436;6.544;2023-04-28T00:27:26;100886.25;;;11.43;69.65
14117;BME280;7137;51.436;6.544;2023-04-28T00:30:28;100883.41;;;11.22;69.86
14117;BME280;7137;51.436;6.544;2023-04-28T00:33:30;100873.63;;;11.29;69.74
14117;BME280;7137;51.436;6.544;2023-04-28T00:36:32;100874.16;;;11.11;72.91
14117;BME280;7137;51.436;6.544;2023-04-28T00:39:33;100876.34;;;10.96;73.80
14117;BME280;7137;51.436;6.544;2023-04-28T00:42:36;100877.66;;;10.82;74.29
14117;BME280;7137;51.436;6.544;2023-04-28T00:45:38;100878.47;;;10.56;79.15
14117;BME280;7137;51.436;6.544;2023-04-28T00:48:39;100866.72;;;10.70;81.57
14117;BME280;7137;51.436;6.544;2023-04-28T00:51:41;100869.31;;;10.39;81.31
14117;BME280;7137;51.436;6.544;2023-04-28T00:54:42;100873.91;;;10.62;82.99
14117;BME280;7137;51.436;6.544;2023-04-28T00:57:49;100866.50;;;10.77;79.42
14117;BME280;7137;51.436;6.544;2023-04-28T01:00:51;100868.13;;;10.81;79.88
14117;BME280;7137;51.436;6.544;2023-04-28T01:03:53;100870.84;;;10.48;81.79
14117;BME280;7137;51.436;6.544;2023-04-28T01:06:54;100859.28;;;10.57;83.65
14117;BME280;7137;51.436;6.544;2023-04-28T01:09:56;100843.31;;;10.66;86.39
14117;BME280;7137;51.436;6.544;2023-04-28T01:12:59;100851.50;;;10.54;89.17
14117;BME280;7137;51.436;6.544;2023-04-28T01:16:01;100844.75;;;10.47;89.24
14117;BME280;7137;51.436;6.544;2023-04-28T01:19:05;100847.19;;;10.53;89.29
14117;BME280;7137;51.436;6.544;2023-04-28T01:22:07;100851.47;;;10.55;88.78
14117;BME280;7137;51.436;6.544;2023-04-28T01:25:11;100842.91;;;10.50;90.41
14117;BME280;7137;51.436;6.544;2023-04-28T01:28:12;100851.06;;;10.69;88.30
14117;BME280;7137;51.436;6.544;2023-04-28T01:31:14;100845.75;;;10.72;86.80
14117;BME280;7137;51.436;6.544;2023-04-28T01:34:15;100845.72;;;10.74;83.91
14117;BME280;7137;51.436;6.544;2023-04-28T01:37:17;100844.53;;;10.54;85.55
14117;BME280;7137;51.436;6.544;2023-04-28T01:40:20;100849.50;;;10.63;85.10
14117;BME280;7137;51.436;6.544;2023-04-28T01:43:22;100843.72;;;10.52;86.02
14117;BME280;7137;51.436;6.544;2023-04-28T01:46:23;100835.97;;;10.49;86.83
14117;BME280;7137;51.436;6.544;2023-04-28T01:49:25;100829.44;;;10.34;91.29
14117;BME280;7137;51.436;6.544;2023-04-28T01:52:26;100811.66;;;10.47;91.56
14117;BME280;7137;51.436;6.544;2023-04-28T01:55:29;100809.31;;;10.38;92.24
14117;BME280;7137;51.436;6.544;2023-04-28T01:58:31;100809.91;;;10.48;93.79
14117;BME280;7137;51.436;6.544;2023-04-28T02:01:32;100809.06;;;10.47;93.29
14117;BME280;7137;51.436;6.544;2023-04-28T02:04:36;100807.25;;;10.49;94.34
14117;BME280;7137;51.436;6.544;2023-04-28T02:07:38;100807.84;;;10.59;92.75
14117;BME280;7137;51.436;6.544;2023-04-28T02:10:41;100807.63;;;10.65;92.94
14117;BME280;7137;51.436;6.544;2023-04-28T02:13:42;100808.09;;;10.50;91.89
14117;BME280;7137;51.436;6.544;2023-04-28T02:16:44;100809.59;;;10.58;93.83
14117;BME280;7137;51.436;6.544;2023-04-28T02:19:45;100803.78;;;10.49;94.23
14117;BME280;7137;51.436;6.544;2023-04-28T02:22:47;100806.88;;;10.61;95.60
14117;BME280;7137;51.436;6.544;2023-04-28T02:25:59;100808.28;;;10.73;93.09
14117;BME280;7137;51.436;6.544;2023-04-28T02:29:01;100803.91;;;10.74;92.83
14117;BME280;7137;51.436;6.544;2023-04-28T02:32:03;100795.53;;;10.90;92.64
14117;BME280;7137;51.436;6.544;2023-04-28T02:35:06;100800.81;;;10.89;90.84
14117;BME280;7137;51.436;6.544;2023-04-28T02:38:08;100808.03;;;10.81;90.30
14117;BME280;7137;51.436;6.544;2023-04-28T02:41:10;100799.59;;;10.73;91.17
14117;BME280;7137;51.436;6.544;2023-04-28T02:44:14;100801.03;;;10.53;94.22
14117;BME280;7137;51.436;6.544;2023-04-28T02:47:15;100801.50;;;10.66;94.23
14117;BME280;7137;51.436;6.544;2023-04-28T02:50:17;100809.88;;;10.77;93.67
14117;BME280;7137;51.436;6.544;2023-04-28T02:53:19;100803.91;;;10.74;96.12
14117;BME280;7137;51.436;6.544;2023-04-28T02:56:22;100798.19;;;10.61;96.48
14117;BME280;7137;51.436;6.544;2023-04-28T02:59:24;100794.97;;;10.81;96.75
14117;BME280;7137;51.436;6.544;2023-04-28T03:02:26;100800.25;;;10.79;96.67
14117;BME280;7137;51.436;6.544;2023-04-28T03:05:28;100788.75;;;10.85;95.78
14117;BME280;7137;51.436;6.544;2023-04-28T03:08:29;100786.47;;;11.02;94.84
14117;BME280;7137;51.436;6.544;2023-04-28T03:11:32;100784.06;;;10.94;94.48
14117;BME280;7137;51.436;6.544;2023-04-28T03:14:34;100791.75;;;11.00;94.27
14117;BME280;7137;51.436;6.544;2023-04-28T03:17:36;100771.88;;;10.95;94.96
14117;BME280;7137;51.436;6.544;2023-04-28T03:20:41;100767.03;;;10.83;95.97
14117;BME280;7137;51.436;6.544;2023-04-28T03:23:42;100763.66;;;10.79;96.83
14117;BME280;7137;51.436;6.544;2023-04-28T03:26:45;100760.59;;;10.93;96.13
14117;BME280;7137;51.436;6.544;2023-04-28T03:29:46;100752.97;;;10.87;97.15
14117;BME280;7137;51.436;6.544;2023-04-28T03:32:48;100736.91;;;10.99;96.25
14117;BME280;7137;51.436;6.544;2023-04-28T03:35:50;100723.44;;;10.85;96.91
14117;BME280;7137;51.436;6.544;2023-04-28T03:38:52;100720.66;;;10.89;96.85
14117;BME280;7137;51.436;6.544;2023-04-28T03:41:55;100711.63;;;10.99;97.34
14117;BME280;7137;51.436;6.544;2023-04-28T03:44:57;100710.31;;;10.86;96.78
14117;BME280;7137;51.436;6.544;2023-04-28T03:47:58;100694.59;;;10.88;97.59
14117;BME280;7137;51.436;6.544;2023-04-28T03:51:00;100675.50;;;10.86;97.95
14117;BME280;7137;51.436;6.544;2023-04-28T03:54:02;100677.59;;;10.75;98.89
14117;BME280;7137;51.436;6.544;2023-04-28T03:57:05;100696.75;;;10.75;100.00
14117;BME280;7137;51.436;6.544;2023-04-28T04:00:08;100692.19;;;10.80;100.00
14117;BME280;7137;51.436;6.544;2023-04-28T04:03:10;100697.66;;;10.74;100.00
14117;BME280;7137;51.436;6.544;2023-04-28T04:06:12;100713.72;;;10.88;98.73
14117;BME280;7137;51.436;6.544;2023-04-28T04:09:13;100714.88;;;11.06;98.25
14117;BME280;7137;51.436;6.544;2023-04-28T04:12:17;100717.97;;;11.17;98.49
14117;BME280;7137;51.436;6.544;2023-04-28T04:15:18;100719.69;;;11.18;99.49
14117;BME280;7137;51.436;6.544;2023-04-28T04:18:20;100733.63;;;11.19;99.30
14117;BME280;7137;51.436;6.544;2023-04-28T04:21:21;100722.13;;;11.23;99.36
14117;BME280;7137;51.436;6.544;2023-04-28T04:24:23;100710.28;;;11.38;98.67
14117;BME280;7137;51.436;6.544;2023-04-28T04:27:26;100704.00;;;11.43;98.07
14117;BME280;7137;51.436;6.544;2023-04-28T04:30:27;100701.22;;;11.48;97.24
14117;BME280;7137;51.436;6.544;2023-04-28T04:33:29;100691.84;;;11.42;97.57
14117;BME280;7137;51.436;6.544;2023-04-28T04:36:31;100683.72;;;11.50;96.67
14117;BME280;7137;51.436;6.544;2023-04-28T04:39:33;100686.28;;;11.51;97.32
14117;BME280;7137;51.436;6.544;2023-04-28T04:42:36;100677.63;;;11.49;97.53
14117;BME280;7137;51.436;6.544;2023-04-28T04:45:38;100684.56;;;11.50;98.86
14117;BME280;7137;51.436;6.544;2023-04-28T04:48:40;100672.81;;;11.62;98.50
14117;BME280;7137;51.436;6.544;2023-04-28T04:51:42;100676.34;;;11.61;97.71
14117;BME280;7137;51.436;6.544;2023-04-28T04:54:44;100671.78;;;11.66;98.33
14117;BME280;7137;51.436;6.544;2023-04-28T04:57:47;100675.03;;;11.73;98.00
14117;BME280;7137;51.436;6.544;2023-04-28T05:00:49;100670.47;;;11.78;97.29
14117;BME280;7137;51.436;6.544;2023-04-28T05:03:50;100671.03;;;11.87;95.36
14117;BME280;7137;51.436;6.544;2023-04-28T05:06:52;100674.50;;;11.88;94.57
14117;BME280;7137;51.436;6.544;2023-04-28T05:09:53;100670.72;;;11.95;95.11
14117;BME280;7137;51.436;6.544;2023-04-28T05:12:56;100674.63;;;11.85;95.15
14117;BME280;7137;51.436;6.544;2023-04-28T05:15:58;100662.34;;;12.09;95.33
14117;BME280;7137;51.436;6.544;2023-04-28T05:18:59;100667.34;;;12.15;94.71
14117;BME280;7137;51.436;6.544;2023-04-28T05:22:01;100664.44;;;12.23;92.98
14117;BME280;7137;51.436;6.544;2023-04-28T05:25:03;100668.00;;;11.98;94.51
14117;BME280;7137;51.436;6.544;2023-04-28T05:28:08;100662.00;;;12.18;95.67
14117;BME280;7137;51.436;6.544;2023-04-28T05:31:09;100656.94;;;12.35;94.38
14117;BME280;7137;51.436;6.544;2023-04-28T05:34:11;100659.28;;;12.43;92.30
14117;BME280;7137;51.436;6.544;2023-04-28T05:37:12;100668.41;;;12.55;92.95
14117;BME280;7137;51.436;6.544;2023-04-28T05:40:14;100660.66;;;12.52;90.33
14117;BME280;7137;51.436;6.544;2023-04-28T05:43:17;100664.50;;;12.43;90.95
14117;BME280;7137;51.436;6.544;2023-04-28T05:46:19;100656.56;;;12.23;91.24
14117;BME280;7137;51.436;6.544;2023-04-28T05:49:20;100664.69;;;12.16;92.89
14117;BME280;7137;51.436;6.544;2023-04-28T05:52:22;100660.09;;;12.00;93.98
14117;BME280;7137;51.436;6.544;2023-04-28T05:55:23;100660.88;;;12.02;94.95
14117;BME280;7137;51.436;6.544;2023-04-28T05:58:27;100655.13;;;11.92;94.20
14117;BME280;7137;51.436;6.544;2023-04-28T06:01:29;100650.03;;;11.89;95.29
14117;BME280;7137;51.436;6.544;2023-04-28T06:04:31;100646.75;;;12.06;94.38
14117;BME280;7137;51.436;6.544;2023-04-28T06:07:32;100645.25;;;12.00;94.63
14117;BME280;7137;51.436;6.544;2023-04-28T06:10:34;100649.78;;;11.95;94.56
14117;BME280;7137;51.436;6.544;2023-04-28T06:13:37;100644.78;;;12.12;95.97
14117;BME280;7137;51.436;6.544;2023-04-28T06:16:38;100648.44;;;12.30;93.32
14117;BME280;7137;51.436;6.544;2023-04-28T06:19:40;100651.78;;;12.34;92.34
14117;BME280;7137;51.436;6.544;2023-04-28T06:22:42;100649.72;;;12.42;91.73
14117;BME280;7137;51.436;6.544;2023-04-28T06:25:43;100637.91;;;12.52;91.73
14117;BME280;7137;51.436;6.544;2023-04-28T06:28:46;100634.44;;;12.73;91.35
14117;BME280;7137;51.436;6.544;2023-04-28T06:31:48;100646.13;;;12.65;91.91
14117;BME280;7137;51.436;6.544;2023-04-28T06:34:51;100635.84;;;12.82;90.54
14117;BME280;7137;51.436;6.544;2023-04-28T06:37:53;100638.72;;;12.96;89.66
14117;BME280;7137;51.436;6.544;2023-04-28T06:40:54;100636.72;;;13.23;88.59
14117;BME280;7137;51.436;6.544;2023-04-28T06:43:57;100636.28;;;13.53;87.01
14117;BME280;7137;51.436;6.544;2023-04-28T06:46:59;100643.94;;;13.76;85.94
14117;BME280;7137;51.436;6.544;2023-04-28T06:50:00;100646.84;;;13.70;84.52
14117;BME280;7137;51.436;6.544;2023-04-28T06:53:02;100646.16;;;13.85;85.13
14117;BME280;7137;51.436;6.544;2023-04-28T06:56:04;100637.56;;;14.01;83.50
14117;BME280;7137;51.436;6.544;2023-04-28T06:59:07;100643.53;;;14.40;82.13
14117;BME280;7137;51.436;6.544;2023-04-28T07:02:09;100638.16;;;14.79;79.73
14117;BME280;7137;51.436;6.544;2023-04-28T07:05:11;100642.59;;;14.77;80.05
14117;BME280;7137;51.436;6.544;2023-04-28T07:08:13;100636.09;;;14.50;80.09
14117;BME280;7137;51.436;6.544;2023-04-28T07:11:14;100630.00;;;14.67;80.38
14117;BME280;7137;51.436;6.544;2023-04-28T07:14:17;100625.66;;;15.00;80.55
14117;BME280;7137;51.436;6.544;2023-04-28T07:17:20;100629.13;;;15.35;77.46
14117;BME280;7137;51.436;6.544;2023-04-28T07:20:21;100633.88;;;15.44;76.41
14117;BME280;7137;51.436;6.544;2023-04-28T07:23:23;100633.31;;;15.22;76.20
14117;BME280;7137;51.436;6.544;2023-04-28T07:26:24;100635.19;;;15.20;76.41
14117;BME280;7137;51.436;6.544;2023-04-28T07:29:27;100633.88;;;15.11;77.19
14117;BME280;7137;51.436;6.544;2023-04-28T07:32:33;100636.09;;;15.02;77.04
14117;BME280;7137;51.436;6.544;2023-04-28T07:35:35;100641.16;;;15.06;78.12
14117;BME280;7137;51.436;6.544;2023-04-28T07:38:36;100644.63;;;15.24;77.21
14117;BME280;7137;51.436;6.544;2023-04-28T07:41:38;100643.00;;;15.04;78.47
14117;BME280;7137;51.436;6.544;2023-04-28T07:44:41;100641.06;;;15.25;78.37
14117;BME280;7137;51.436;6.544;2023-04-28T07:47:42;100638.13;;;16.43;74.86
14117;BME280;7137;51.436;6.544;2023-04-28T07:50:44;100639.44;;;17.55;68.76
14117;BME280;7137;51.436;6.544;2023-04-28T07:53:45;100636.47;;;17.16;68.36
14117;BME280;7137;51.436;6.544;2023-04-28T07:56:48;100631.59;;;16.35;71.57
14117;BME280;7137;51.436;6.544;2023-04-28T07:59:51;100632.81;;;15.97;75.01
14117;BME280;7137;51.436;6.544;2023-04-28T08:02:53;100627.78;;;16.09;74.75
14117;BME280;7137;51.436;6.544;2023-04-28T08:05:57;100630.06;;;15.83;74.44
14117;BME280;7137;51.436;6.544;2023-04-28T08:08:59;100634.66;;;15.80;76.66
14117;BME280;7137;51.436;6.544;2023-04-28T08:12:01;100638.66;;;16.02;75.54
14117;BME280;7137;51.436;6.544;2023-04-28T08:15:05;100623.59;;;16.04;73.82
14117;BME280;7137;51.436;6.544;2023-04-28T08:18:07;100625.91;;;15.79;74.82
14117;BME280;7137;51.436;6.544;2023-04-28T08:21:08;100628.47;;;15.96;76.56
14117;BME280;7137;51.436;6.544;2023-04-28T08:24:10;100612.38;;;16.32;75.91
14117;BME280;7137;51.436;6.544;2023-04-28T08:27:11;100620.44;;;16.91;72.76
14117;BME280;7137;51.436;6.544;2023-04-28T08:30:14;100627.63;;;16.57;73.30
14117;BME280;7137;51.436;6.544;2023-04-28T08:33:16;100625.34;;;16.67;76.06
14117;BME280;7137;51.436;6.544;2023-04-28T08:36:18;100634.69;;;16.73;75.51
14117;BME280;7137;51.436;6.544;2023-04-28T08:39:20;100632.34;;;16.52;78.77
14117;BME280;7137;51.436;6.544;2023-04-28T08:42:23;100625.06;;;15.94;80.95
14117;BME280;7137;51.436;6.544;2023-04-28T08:45:27;100627.66;;;16.42;83.95
14117;BME280;7137;51.436;6.544;2023-04-28T08:48:33;100635.56;;;16.87;82.84
14117;BME280;7137;51.436;6.544;2023-04-28T08:51:44;100634.78;;;17.15;78.64
14117;BME280;7137;51.436;6.544;2023-04-28T08:54:48;100629.69;;;17.12;79.72
14117;BME280;7137;51.436;6.544;2023-04-28T08:57:52;100629.53;;;17.30;79.56
14117;BME280;7137;51.436;6.544;2023-04-28T09:00:56;100636.88;;;17.10;77.15
14117;BME280;7137;51.436;6.544;2023-04-28T09:03:59;100635.00;;;17.27;77.56
14117;BME280;7137;51.436;6.544;2023-04-28T09:07:01;100635.41;;;17.35;78.21
14117;BME280;7137;51.436;6.544;2023-04-28T09:10:17;100643.53;;;17.74;75.32
14117;BME280;7137;51.436;6.544;2023-04-28T09:13:24;100632.56;;;17.52;75.53
14117;BME280;7137;51.436;6.544;2023-04-28T09:16:38;100630.00;;;17.93;75.02
14117;BME280;7137;51.436;6.544;2023-04-28T09:19:40;100632.25;;;17.57;75.29
14117;BME280;7137;51.436;6.544;2023-04-28T09:22:43;100632.00;;;17.18;76.26
14117;BME280;7137;51.436;6.544;2023-04-28T09:26:01;100622.75;;;17.26;78.27
14117;BME280;7137;51.436;6.544;2023-04-28T09:29:10;100617.25;;;17.29;76.70
14117;BME280;7137;51.436;6.544;2023-04-28T09:32:16;100616.41;;;17.28;76.42
14117;BME280;7137;51.436;6.544;2023-04-28T09:35:37;100612.09;;;17.41;77.39
14117;BME280;7137;51.436;6.544;2023-04-28T09:38:42;100615.94;;;17.07;79.72
14117;BME280;7137;51.436;6.544;2023-04-28T09:41:44;100612.72;;;17.31;78.13
14117;BME280;7137;51.436;6.544;2023-04-28T09:44:52;100614.88;;;16.66;80.03
14117;BME280;7137;51.436;6.544;2023-04-28T09:48:08;100618.16;;;16.85;81.43
14117;BME280;7137;51.436;6.544;2023-04-28T09:51:10;100613.28;;;17.07;81.62
14117;BME280;7137;51.436;6.544;2023-04-28T09:54:12;100613.69;;;17.30;81.37
14117;BME280;7137;51.436;6.544;2023-04-28T09:57:15;100618.59;;;17.36;81.11
14117;BME280;7137;51.436;6.544;2023-04-28T10:00:19;100614.16;;;17.50;80.21
14117;BME280;7137;51.436;6.544;2023-04-28T10:03:24;100610.03;;;17.32;81.25
14117;BME280;7137;51.436;6.544;2023-04-28T10:06:27;100607.66;;;17.28;80.54
14117;BME280;7137;51.436;6.544;2023-04-28T10:09:30;100607.84;;;17.39;80.68
14117;BME280;7137;51.436;6.544;2023-04-28T10:12:32;100613.00;;;16.98;83.73
14117;BME280;7137;51.436;6.544;2023-04-28T10:15:38;100610.78;;;16.76;85.30
14117;BME280;7137;51.436;6.544;2023-04-28T10:18:41;100618.78;;;16.58;87.45
14117;BME280;7137;51.436;6.544;2023-04-28T10:22:01;100610.56;;;16.49;89.28
14117;BME280;7137;51.436;6.544;2023-04-28T10:25:16;100617.84;;;16.75;86.38
14117;BME280;7137;51.436;6.544;2023-04-28T10:28:24;100616.22;;;17.17;85.48
14117;BME280;7137;51.436;6.544;2023-04-28T10:31:26;100615.13;;;17.49;84.27
14117;BME280;7137;51.436;6.544;2023-04-28T10:34:29;100611.81;;;17.60;84.26
14117;BME280;7137;51.436;6.544;2023-04-28T10:38:02;100610.19;;;17.29;87.00
14117;BME280;7137;51.436;6.544;2023-04-28T10:41:30;100609.81;;;17.07;87.57
14117;BME280;7137;51.436;6.544;2023-04-28T10:44:41;100610.13;;;16.56;89.34
14117;BME280;7137;51.436;6.544;2023-04-28T10:48:00;100604.91;;;16.71;92.14
14117;BME280;7137;51.436;6.544;2023-04-28T10:51:23;100598.56;;;16.43;94.43
14117;BME280;7137;51.436;6.544;2023-04-28T10:54:24;100602.97;;;16.58;95.16
14117;BME280;7137;51.436;6.544;2023-04-28T10:57:27;100606.31;;;16.46;95.38
14117;BME280;7137;51.436;6.544;2023-04-28T11:00:29;100605.38;;;16.47;97.74
14117;BME280;7137;51.436;6.544;2023-04-28T11:03:44;100615.16;;;16.45;96.00
14117;BME280;7137;51.436;6.544;2023-04-28T11:07:09;100607.69;;;16.38;98.17
14117;BME280;7137;51.436;6.544;2023-04-28T11:10:13;100614.41;;;16.27;98.29
14117;BME280;7137;51.436;6.544;2023-04-28T11:13:24;100608.88;;;16.32;99.76
14117;BME280;7137;51.436;6.544;2023-04-28T11:16:26;100606.88;;;16.97;99.60
14117;BME280;7137;51.436;6.544;2023-04-28T11:19:28;100615.09;;;17.07;99.30
14117;BME280;7137;51.436;6.544;2023-04-28T11:22:32;100611.53;;;17.50;96.07
14117;BME280;7137;51.436;6.544;2023-04-28T11:25:55;100611.22;;;17.55;95.10
14117;BME280;7137;51.436;6.544;2023-04-28T11:28:57;100605.66;;;18.02;95.11
14117;BME280;7137;51.436;6.544;2023-04-28T11:31:58;100603.84;;;18.30;92.85
14117;BME280;7137;51.436;6.544;2023-04-28T11:35:00;100608.47;;;17.99;92.27
14117;BME280;7137;51.436;6.544;2023-04-28T11:38:04;100612.69;;;18.16;91.90
14117;BME280;7137;51.436;6.544;2023-04-28T11:41:06;100608.66;;;17.96;92.21
14117;BME280;7137;51.436;6.544;2023-04-28T11:44:11;100605.50;;;18.72;88.22
14117;BME280;7137;51.436;6.544;2023-04-28T11:47:13;100602.22;;;18.81;88.57
14117;BME280;7137;51.436;6.544;2023-04-28T11:50:15;100602.53;;;18.77;88.79
14117;BME280;7137;51.436;6.544;2023-04-28T11:53:18;100603.66;;;19.87;81.83
14117;BME280;7137;51.436;6.544;2023-04-28T11:56:19;100608.47;;;20.42;79.22
14117;BME280;7137;51.436;6.544;2023-04-28T11:59:25;100610.16;;;19.70;79.91
14117;BME280;7137;51.436;6.544;2023-04-28T12:02:27;100603.06;;;18.82;83.65
14117;BME280;7137;51.436;6.544;2023-04-28T12:05:29;100606.38;;;18.04;87.03
14117;BME280;7137;51.436;6.544;2023-04-28T12:08:35;100610.31;;;18.12;88.38
14117;BME280;7137;51.436;6.544;2023-04-28T12:11:36;100608.88;;;17.93;89.22
14117;BME280;7137;51.436;6.544;2023-04-28T12:14:55;100596.31;;;17.54;89.90
14117;BME280;7137;51.436;6.544;2023-04-28T12:18:08;100585.41;;;17.74;90.05
14117;BME280;7137;51.436;6.544;2023-04-28T12:21:19;100590.56;;;17.90;88.64
14117;BME280;7137;51.436;6.544;2023-04-28T12:24:22;100591.97;;;19.02;85.89
14117;BME280;7137;51.436;6.544;2023-04-28T12:27:26;100590.25;;;19.39;80.24
14117;BME280;7137;51.436;6.544;2023-04-28T12:30:29;100583.13;;;19.40;79.69
14117;BME280;7137;51.436;6.544;2023-04-28T12:33:31;100581.38;;;20.61;76.81
14117;BME280;7137;51.436;6.544;2023-04-28T12:36:37;100584.16;;;20.36;74.47
14117;BME280;7137;51.436;6.544;2023-04-28T12:39:40;100584.69;;;20.76;72.05
14117;BME280;7137;51.436;6.544;2023-04-28T12:42:42;100584.63;;;21.00;71.75
14117;BME280;7137;51.436;6.544;2023-04-28T12:45:44;100576.31;;;20.34;73.72
14117;BME280;7137;51.436;6.544;2023-04-28T12:48:46;100575.31;;;19.38;77.72
14117;BME280;7137;51.436;6.544;2023-04-28T12:51:47;100576.59;;;19.58;77.63
14117;BME280;7137;51.436;6.544;2023-04-28T12:54:50;100568.66;;;18.94;78.66
14117;BME280;7137;51.436;6.544;2023-04-28T12:57:53;100574.75;;;18.69;80.37
14117;BME280;7137;51.436;6.544;2023-04-28T13:00:55;100574.97;;;18.66;82.17
14117;BME280;7137;51.436;6.544;2023-04-28T13:03:57;100581.06;;;18.54;82.16
14117;BME280;7137;51.436;6.544;2023-04-28T13:06:58;100575.84;;;18.80;82.35
14117;BME280;7137;51.436;6.544;2023-04-28T13:10:02;100569.47;;;19.95;77.58
14117;BME280;7137;51.436;6.544;2023-04-28T13:13:03;100567.31;;;20.24;75.19
14117;BME280;7137;51.436;6.544;2023-04-28T13:16:05;100565.84;;;19.96;76.28
14117;BME280;7137;51.436;6.544;2023-04-28T13:19:07;100559.41;;;21.17;72.08
14117;BME280;7137;51.436;6.544;2023-04-28T13:22:12;100559.50;;;20.93;71.50
14117;BME280;7137;51.436;6.544;2023-04-28T13:25:16;100559.50;;;20.47;72.67
14117;BME280;7137;51.436;6.544;2023-04-28T13:28:18;100557.22;;;20.99;71.16
14117;BME280;7137;51.436;6.544;2023-04-28T13:31:19;100547.44;;;21.67;69.03
14117;BME280;7137;51.436;6.544;2023-04-28T13:34:21;100551.63;;;20.80;69.76
14117;BME280;7137;51.436;6.544;2023-04-28T13:37:22;100547.94;;;21.16;68.84
14117;BME280;7137;51.436;6.544;2023-04-28T13:40:25;100547.66;;;20.86;70.54
14117;BME280;7137;51.436;6.544;2023-04-28T13:43:27;100552.44;;;20.58;70.80
14117;BME280;7137;51.436;6.544;2023-04-28T13:46:29;100538.94;;;20.72;71.52
14117;BME280;7137;51.436;6.544;2023-04-28T13:49:30;100543.00;;;21.12;69.79
14117;BME280;7137;51.436;6.544;2023-04-28T13:52:32;100540.25;;;20.56;71.40
14117;BME280;7137;51.436;6.544;2023-04-28T13:55:35;100541.63;;;20.84;70.99
14117;BME280;7137;51.436;6.544;2023-04-28T13:58:36;100541.81;;;21.27;69.09
14117;BME280;7137;51.436;6.544;2023-04-28T14:01:38;100532.13;;;21.15;69.13
14117;BME280;7137;51.436;6.544;2023-04-28T14:04:40;100532.81;;;21.05;68.98
14117;BME280;7137;51.436;6.544;2023-04-28T14:07:47;100535.06;;;20.06;72.90
14117;BME280;7137;51.436;6.544;2023-04-28T14:10:50;100541.91;;;19.61;75.34
14117;BME280;7137;51.436;6.544;2023-04-28T14:13:52;100536.31;;;19.27;76.70
14117;BME280;7137;51.436;6.544;2023-04-28T14:16:53;100532.09;;;18.99;78.54
14117;BME280;7137;51.436;6.544;2023-04-28T14:19:55;100541.72;;;19.26;78.64
14117;BME280;7137;51.436;6.544;2023-04-28T14:22:57;100540.25;;;18.71;78.55
14117;BME280;7137;51.436;6.544;2023-04-28T14:26:00;100552.44;;;18.99;77.21
14117;BME280;7137;51.436;6.544;2023-04-28T14:29:01;100550.22;;;18.67;79.84
14117;BME280;7137;51.436;6.544;2023-04-28T14:32:04;100563.81;;;18.49;78.65
14117;BME280;7137;51.436;6.544;2023-04-28T14:35:07;100558.06;;;18.42;79.00
14117;BME280;7137;51.436;6.544;2023-04-28T14:38:08;100566.31;;;18.37;78.22
14117;BME280;7137;51.436;6.544;2023-04-28T14:41:11;100574.03;;;17.87;80.96
14117;BME280;7137;51.436;6.544;2023-04-28T14:44:13;100567.91;;;17.86;81.57
14117;BME280;7137;51.436;6.544;2023-04-28T14:47:15;100575.75;;;17.59;82.31
14117;BME280;7137;51.436;6.544;2023-04-28T14:50:16;100587.84;;;17.06;83.58
14117;BME280;7137;51.436;6.544;2023-04-28T14:53:18;100590.31;;;17.24;83.50
14117;BME280;7137;51.436;6.544;2023-04-28T14:56:21;100591.22;;;16.94;85.03
14117;BME280;7137;51.436;6.544;2023-04-28T14:59:24;100596.06;;;16.72;87.79
14117;BME280;7137;51.436;6.544;2023-04-28T15:02:26;100612.84;;;16.55;87.25
14117;BME280;7137;51.436;6.544;2023-04-28T15:05:28;100610.78;;;16.76;84.93
14117;BME280;7137;51.436;6.544;2023-04-28T15:08:31;100611.28;;;16.67;85.01
14117;BME280;7137;51.436;6.544;2023-04-28T15:11:35;100609.16;;;16.73;82.49
14117;BME280;7137;51.436;6.544;2023-04-28T15:14:36;100615.47;;;16.71;82.35
14117;BME280;7137;51.436;6.544;2023-04-28T15:17:38;100613.44;;;16.76;81.23
14117;BME280;7137;51.436;6.544;2023-04-28T15:20:40;100611.19;;;16.98;80.06
14117;BME280;7137;51.436;6.544;2023-04-28T15:23:41;100602.47;;;17.26;78.37
14117;BME280;7137;51.436;6.544;2023-04-28T15:26:44;100621.13;;;17.23;76.37
14117;BME280;7137;51.436;6.544;2023-04-28T15:29:46;100627.84;;;17.57;75.60
14117;BME280;7137;51.436;6.544;2023-04-28T15:32:48;100639.75;;;17.93;74.27
14117;BME280;7137;51.436;6.544;2023-04-28T15:35:50;100629.81;;;17.54;73.75
14117;BME280;7137;51.436;6.544;2023-04-28T15:38:52;100628.69;;;17.58;73.40
14117;BME280;7137;51.436;6.544;2023-04-28T15:41:54;100641.38;;;17.08;75.13
14117;BME280;7137;51.436;6.544;2023-04-28T15:44:57;100638.00;;;17.06;76.23
14117;BME280;7137;51.436;6.544;2023-04-28T15:47:59;100642.53;;;17.04;76.85
14117;BME280;7137;51.436;6.544;2023-04-28T15:51:01;100648.19;;;17.27;75.43
14117;BME280;7137;51.436;6.544;2023-04-28T15:54:03;100649.25;;;17.24;75.39
14117;BME280;7137;51.436;6.544;2023-04-28T15:57:06;100653.88;;;17.35;75.38
14117;BME280;7137;51.436;6.544;2023-04-28T16:00:08;100663.41;;;17.37;76.20
14117;BME280;7137;51.436;6.544;2023-04-28T16:03:11;100654.31;;;17.27;77.10
14117;BME280;7137;51.436;6.544;2023-04-28T16:06:13;100664.50;;;17.19;77.85
14117;BME280;7137;51.436;6.544;2023-04-28T16:09:14;100666.47;;;17.15;77.16